createdAt,value
2023-05-02T00:01:46.044Z,14.50
2023-05-02T00:04:13.272Z,22.80
2023-05-02T00:06:42.980Z,13.70
2023-05-02T00:09:10.718Z,22.50
2023-05-02T00:11:37.937Z,18.10
2023-05-02T00:14:05.100Z,19.40
2023-05-02T00:16:32.302Z,26.40
2023-05-02T00:18:59.496Z,26.90
2023-05-02T00:21:29.463Z,29.00
2023-05-02T00:23:57.603Z,33.00
2023-05-02T00:26:25.094Z,21.90
2023-05-02T00:28:52.306Z,19.70
2023-05-02T00:31:19.495Z,22.00
2023-05-02T00:33:46.604Z,21.90
2023-05-02T00:36:18.615Z,18.50
2023-05-02T00:38:47.356Z,11.10
2023-05-02T00:41:14.563Z,14.20
2023-05-02T00:43:41.695Z,8.40
2023-05-02T00:46:10.831Z,12.40
2023-05-02T00:48:37.950Z,11.40
2023-05-02T00:51:09.191Z,14.10
2023-05-02T00:53:36.789Z,10.50
2023-05-02T00:56:04.045Z,14.80
2023-05-02T00:58:31.187Z,13.10
2023-05-02T01:01:20.059Z,11.90
2023-05-02T01:04:00.347Z,12.20
2023-05-02T01:06:43.816Z,16.30
2023-05-02T01:09:37.940Z,14.30
2023-05-02T01:12:06.159Z,10.20
2023-05-02T01:14:41.607Z,10.40
2023-05-02T01:17:13.239Z,10.00
2023-05-02T01:19:42.580Z,10.60
2023-05-02T01:22:10.110Z,12.20
2023-05-02T01:25:14.527Z,12.40
2023-05-02T01:28:15.229Z,8.20
2023-05-02T01:30:42.897Z,7.60
2023-05-02T01:33:12.162Z,12.90
2023-05-02T01:35:39.314Z,12.60
2023-05-02T01:38:06.564Z,7.00
2023-05-02T01:40:34.012Z,6.30
2023-05-02T01:43:03.850Z,11.90
2023-05-02T01:45:31.897Z,6.40
2023-05-02T01:47:59.410Z,5.90
2023-05-02T01:50:27.522Z,10.80
2023-05-02T01:52:54.983Z,13.30
2023-05-02T01:55:22.218Z,9.00
2023-05-02T01:57:50.699Z,5.00
2023-05-02T02:00:17.960Z,7.60
2023-05-02T02:02:46.841Z,8.40
2023-05-02T02:05:14.107Z,13.50
2023-05-02T02:07:41.752Z,5.20
2023-05-02T02:10:09.222Z,6.10
2023-05-02T02:12:39.344Z,7.80
2023-05-02T02:15:10.637Z,7.50
2023-05-02T02:18:01.508Z,10.40
2023-05-02T02:20:29.810Z,7.00
2023-05-02T02:22:58.149Z,7.40
2023-05-02T02:25:27.226Z,6.30
2023-05-02T02:27:56.332Z,6.30
2023-05-02T02:30:26.561Z,10.30
2023-05-02T02:32:53.761Z,9.00
2023-05-02T02:35:21.191Z,7.20
2023-05-02T02:37:48.673Z,7.60
2023-05-02T02:40:34.433Z,11.80
2023-05-02T02:43:10.923Z,8.50
2023-05-02T02:46:04.949Z,8.00
2023-05-02T02:48:36.354Z,8.70
2023-05-02T02:51:14.281Z,13.10
2023-05-02T02:53:52.814Z,13.20
2023-05-02T02:56:22.863Z,10.40
2023-05-02T02:59:00.673Z,9.40
2023-05-02T03:03:43.891Z,11.50
2023-05-02T03:06:12.313Z,7.30
2023-05-02T03:08:43.447Z,9.00
2023-05-02T03:13:42.292Z,8.30
2023-05-02T03:16:19.774Z,9.00
2023-05-02T03:18:47.188Z,8.50
2023-05-02T03:21:15.929Z,8.70
2023-05-02T03:23:43.682Z,11.90
2023-05-02T03:26:15.175Z,8.70
2023-05-02T03:31:11.340Z,7.40
